x

9442396 - La Push, Wa (lapw1) Weather Station

1:30 - Sat 30th Jul 2016 All times are PDT. -7 hours from GMT.

  • Wind
  • Sea Temp 49°f
  • Air Temp 51°f
  • Sea Pressure 1014.5mb
  • 9442396 - La Push, Wa
  • 9442396 - La Push, Wa

More Historic Weather Station data

Upgrade to MSW Pro to gain access to the past 30 days of data for over 8000 Wavebouys and Weather Stations around the globe.

Join Pro

Comparision Forecast

View Surf forecast
   
sam. 07/30 1:30  -  1 mph 1014.5mb 49f 51f
1:24  -  2 mph 1014.5mb 49f 52f
1:18 2 3 mph 1014.5mb 49f 52f
1:12 1 2 mph 1014.6mb 48f 52f
1:06  -  2 mph 1014.6mb 48f 52f
1:00 2 3 mph 1014.7mb 48f 52f
12:36  -  2 mph 1014.8mb 48f 53f
12:30 2 3 mph 1014.7mb 48f 52f
12:24 2 3 mph 1014.7mb 48f 53f
12:18 2 3 mph 1014.8mb 48f 52f
12:12 2 3 mph 1014.8mb 48f 53f
12:06 1 2 mph 1014.9mb 48f 53f
12:00  -  2 mph 1014.9mb 48f 53f
ven. 07/29 11:36 1 2 mph 1015.1mb 48f 52f
11:30  -  1 mph 1015.1mb 48f 52f
11:24  -  2 mph 1015.2mb 48f 53f
11:18 2
mph
1015.2mb 48f 53f
11:12  -  1 mph 1015.2mb 48f 53f
11:06 1 2 mph 1015.2mb 48f 53f
11:00 1 2 mph 1015.3mb 47f 53f
10:36 1 2 mph 1015.4mb 48f 54f
10:30 1 2 mph 1015.4mb 48f 55f
10:24  -  2 mph 1015.5mb 48f 56f
10:18 2 3 mph 1015.5mb 48f 56f
10:12 3
mph
1015.5mb 48f 56f
10:06 2 3 mph 1015.5mb 48f 54f
10:00  -  1 mph 1015.6mb 48f 54f
9:36  -  1 mph 1015.6mb 47f 55f
9:30  -  1 mph 1015.6mb 48f 55f
9:24  -  1 mph 1015.7mb 48f 55f
9:18  -  2 mph 1015.7mb 47f 56f
9:12  -  2 mph 1015.7mb 47f 56f
9:06 1 2 mph 1015.7mb 47f 56f
9:00 2
mph
1015.8mb 47f 56f
8:36 2
mph
1015.8mb 47f 57f
8:30 1 2 mph 1015.8mb 47f 57f
8:24 1 3 mph 1015.9mb 47f 57f
8:18 2 3 mph 1015.9mb 47f 57f
8:12 2 5 mph 1015.9mb 47f 57f
8:06 3 5 mph 1015.9mb 47f 58f
8:00 2 5 mph 1015.9mb 47f 57f
7:36 5 6 mph 1016mb 47f 57f
7:30 5 6 mph 1016mb 47f 58f
7:24 3 6 mph 1016.1mb 47f 57f
7:18 5 7 mph 1016.1mb 47f 57f
7:12 6 8 mph 1016.1mb 47f 57f
7:06 3 6 mph 1016.1mb 47f 57f
7:00 3 6 mph 1016.1mb 47f 57f
6:36 6 8 mph 1016.2mb 47f 57f
6:30 6 8 mph 1016.2mb 47f 57f
6:24 6 8 mph 1016.2mb 47f 57f
6:18 6 8 mph 1016.3mb 47f 57f
6:12 6 9 mph 1016.3mb 47f 57f
6:06 7 8 mph 1016.3mb 47f 57f
6:00 6 8 mph 1016.3mb 47f 57f
5:36 7 9 mph 1016.4mb 48f 57f
5:30 7 10 mph 1016.5mb 48f 57f
5:24 8 13 mph 1016.5mb 48f 57f
5:18 10 13 mph 1016.5mb 48f 57f
5:12 10 14 mph 1016.5mb 48f 57f
5:06 11 14 mph 1016.5mb 49f 57f
5:00 11 14 mph 1016.5mb 49f 57f
4:36 13 15 mph 1016.7mb 49f 57f
4:30 11 15 mph 1016.7mb 49f 57f
4:24 11 15 mph 1016.7mb 49f 57f
4:18 11 14 mph 1016.7mb 49f 57f
4:12 11 14 mph 1016.7mb 49f 57f
4:06 13 15 mph 1016.7mb 49f 57f
4:00 14 16 mph 1016.7mb 49f 57f
3:36 14 16 mph 1016.6mb 49f 56f
3:30 13 16 mph 1016.7mb 49f 55f
3:24 13 15 mph 1016.8mb 49f 55f
3:18 11 14 mph 1016.8mb 49f 54f
3:12 11 14 mph 1016.8mb 49f 55f
3:06 11 14 mph 1016.8mb 49f 55f
3:00 10 13 mph 1016.9mb 49f 55f
2:36 9 10 mph 1017mb 49f 56f
2:30 7 9 mph 1016.9mb 48f 56f
2:24 7 8 mph 1016.9mb 48f 56f
2:18 6 7 mph 1016.9mb 48f 56f
2:12 5 6 mph 1017mb 48f 55f
2:06 5 6 mph 1017mb 48f 55f
2:00 5 6 mph 1017.1mb 48f 55f
1:36 3 6 mph 1017.1mb 48f 56f
1:30 5 7 mph 1017.1mb 48f 55f
1:24 5 7 mph 1017.1mb 48f 55f
1:18 5 8 mph 1017.2mb 47f 55f
1:12 6 7 mph 1017.2mb 47f 55f
1:06 6 8 mph 1017.1mb 47f 55f
1:00 6 8 mph 1017mb 47f 55f
12:36 6 9 mph 1016.9mb 47f 56f
12:30 6 8 mph 1016.9mb 47f 55f
12:24 6 8 mph 1017mb 47f 56f
12:18 6 8 mph 1017mb 47f 55f
12:12 5 7 mph 1017mb 47f 55f
12:06 6 7 mph 1017mb 47f 56f
12:00 5 7 mph 1017mb 47f 56f
11:36 5 7 mph 1017.2mb 47f 55f
11:30 5 7 mph 1017.2mb 46f 55f
11:24 6 7 mph 1017.2mb 47f 55f
11:18 6 7 mph 1017.2mb 47f 55f
11:12 6 8 mph 1017.1mb 46f 55f
11:06 5 7 mph 1017.1mb 47f 55f
11:00 6 7 mph 1017.1mb 47f 55f
10:36 6 7 mph 1017.1mb 46f 55f
10:30 5 6 mph 1017.1mb 46f 55f
10:24 5 7 mph 1017.1mb 46f 55f
10:18 5 7 mph 1017.1mb 47f 55f
10:12 6 7 mph 1017.1mb 47f 55f
10:06 5 6 mph 1017.1mb 47f 55f
10:00 5 6 mph 1017.1mb 47f 55f
9:36 3 7 mph 1017.3mb 47f 55f
9:30 5 6 mph 1017.2mb 47f 55f
9:24 5 6 mph 1017.2mb 47f 55f
9:18 5 6 mph 1017.2mb 47f 55f
9:12 5 6 mph 1017.1mb 47f 55f
9:06 5
mph
1017.1mb 47f 55f
9:00 3 5 mph 1017.1mb 47f 55f
8:36 2 5 mph 1017.2mb 47f 55f
8:30 2 3 mph 1017.2mb 47f 55f
8:24  -  2 mph 1017.2mb 47f 55f
8:18 1 2 mph 1017.2mb 48f 56f
8:12  -  2 mph 1017.2mb 48f 55f
8:06 1
mph
1017.2mb 48f 55f
8:00  -  3 mph 1017.2mb 48f 55f
7:36 2 3 mph 1017.1mb 48f 54f
7:30 3
mph
1017mb 48f 54f
7:24 3
mph
1017mb 48f 54f
7:18 2 3 mph 1017.1mb 48f 55f
7:12 2 3 mph 1017.1mb 48f 55f
7:06  -  2 mph 1017.1mb 48f 55f
7:00 2 3 mph 1017.1mb 48f 55f
6:36 3
mph
1016.9mb 49f 55f
6:30 2 3 mph 1016.9mb 49f 54f
6:24 3 5 mph 1016.9mb 49f 54f
6:18 2 3 mph 1016.9mb 49f 54f
6:12 5 6 mph 1016.9mb 49f 54f
6:06 5 6 mph 1016.9mb 49f 54f
6:00 3 5 mph 1016.9mb 49f 54f
5:36 5 6 mph 1016.9mb 50f 54f
5:30 5 6 mph 1017mb 50f 54f
5:24 5
mph
1017mb 50f 54f
5:18 3 5 mph 1017mb 50f 53f
5:12 3
mph
1017mb 51f 54f
5:06 3
mph
1017mb 51f 53f
5:00 3
mph
1017mb 51f 53f
4:36 1
mph
1017.1mb 53f 53f
4:30 1 2 mph 1017.2mb 54f 54f
4:24 2 3 mph 1017.2mb 54f 53f
4:18 2 3 mph 1017.2mb 55f 54f
4:12 2
mph
1017.2mb 56f 54f
4:06 1 2 mph 1017.2mb 57f 54f
4:00 2 3 mph 1017.2mb 58f 54f
3:36 2
mph
1017.2mb 58f 53f
3:30 2
mph
1017.1mb 58f 54f
3:24  -  1 mph 1017.2mb 58f 54f
3:18 1
mph
1017.2mb 58f 55f
3:12  -  mph 1017.3mb 58f 55f
3:06  -  1 mph 1017.4mb 58f 55f
3:00  -  1 mph 1017.4mb 59f 55f
2:36 1 2 mph 1017.4mb 59f 55f
2:30 2
mph
1017.5mb 59f 55f
2:24  -  2 mph 1017.5mb 60f 55f
2:18  -  1 mph 1017.5mb 60f 55f
2:12  -  1 mph 1017.6mb 59f 55f
2:06  -  mph 1017.5mb 59f 55f
2:00  -  1 mph 1017.4mb 58f 55f
1:54 1
mph
1017.4mb 58f 55f
1:48  -  1 mph 1017.4mb 58f 55f
1:36 2 5 mph 1017.5mb 57f 56f
1:30 3 5 mph 1017.6mb 55f 56f
1:24 5
mph
1017.7mb 53f 56f
1:18 3 5 mph 1017.8mb 51f 56f
1:12 3
mph
1017.7mb 51f 56f
1:06 3
mph
1017.8mb 50f 56f
1:00 2 3 mph 1017.8mb 50f 56f
12:54 1 3 mph 1017.8mb 50f 57f
12:48 2 5 mph 1017.8mb 49f 57f
12:36 5 7 mph 1017.8mb 49f 58f
12:30 5 8 mph 1017.7mb 49f 58f
12:24 2 8 mph 1017.7mb 49f 58f
12:18 6 7 mph 1017.7mb 49f 58f
12:12 5 7 mph 1017.8mb 49f 58f
12:06 6 7 mph 1017.9mb 49f 58f
12:00 6
mph
1018mb 49f 57f
jeu. 07/28 11:54 3 5 mph 1018.1mb 49f 57f
11:48 1 3 mph 1018.1mb 49f 57f
11:36  -  1 mph 1018.1mb 48f 56f
11:30  -  5 mph 1018.2mb 48f 56f
11:24 5 6 mph 1018.3mb 48f 57f
11:18 5 6 mph 1018.4mb 48f 57f
11:12 5 6 mph 1018.4mb 48f 58f
11:06 2 3 mph 1018.3mb 48f 57f
11:00  -  2 mph 1018.3mb 48f 57f
10:54 1 2 mph 1018.3mb 48f 57f
10:48 2
mph
1018.3mb 48f 57f
10:36 1 2 mph 1018.5mb 48f 57f
10:30  -  1 mph 1018.5mb 48f 58f
10:24  -  2 mph 1018.5mb 48f 58f
10:18  -  2 mph 1018.4mb 48f 58f
10:12 2 3 mph 1018.5mb 48f 58f
10:06 3 6 mph 1018.4mb 48f 58f
10:00 5 6 mph 1018.4mb 48f 58f
9:54 5 6 mph 1018.5mb 48f 59f
9:48 5 6 mph 1018.5mb 48f 58f
9:36 7 8 mph 1018.5mb 47f 58f
9:30 6 9 mph 1018.5mb 47f 58f
9:24 7 10 mph 1018.5mb 47f 58f
9:18 8 10 mph 1018.5mb 47f 58f
9:12 9 13 mph 1018.5mb 47f 57f
9:06 10 13 mph 1018.5mb 47f 57f
9:00 7 13 mph 1018.6mb 47f 57f
8:54 10 14 mph 1018.6mb 47f 57f
8:48 11 15 mph 1018.7mb 47f 57f
8:36 11 15 mph 1018.6mb 47f 57f
8:30 11 15 mph 1018.5mb 47f 57f
8:24 10 15 mph 1018.4mb 47f 57f
8:18 13 16 mph 1018.4mb 47f 57f
8:12 13 16 mph 1018.4mb 47f 58f
8:06 13 15 mph 1018.3mb 47f 58f
8:00 11 15 mph 1018.3mb 47f 58f
7:36 13 17 mph 1018.4mb 48f 57f
7:30 11 15 mph 1018.4mb 48f 57f
7:24 13 16 mph 1018.5mb 48f 57f
7:18 13 16 mph 1018.5mb 48f 57f
7:12 11 16 mph 1018.6mb 48f 57f
7:06 14 16 mph 1018.7mb 48f 58f
7:00 13 16 mph 1018.7mb 48f 58f
6:54 14 16 mph 1018.9mb 48f 58f
6:48 14 16 mph 1018.8mb 48f 58f
6:36 14 17 mph 1018.8mb 48f 58f
6:30 14 17 mph 1018.9mb 48f 58f
6:24 14 18 mph 1019mb 48f 57f
6:18 15 18 mph 1019.1mb 48f 56f
6:12 14 18 mph 1019.1mb 48f 56f
6:06 15 17 mph 1019.2mb 48f 55f
6:00 14 18 mph 1019.2mb 48f 55f
5:54 14 20 mph 1019.3mb 49f 55f
5:48 15 18 mph 1019.4mb 49f 55f
5:36 16 21 mph 1019.5mb 49f 55f
5:30 18 22 mph 1019.5mb 49f 55f
5:24 18 22 mph 1019.5mb 49f 55f
5:18 17 21 mph 1019.6mb 49f 55f
5:12 17 21 mph 1019.6mb 49f 55f
5:06 18 21 mph 1019.7mb 49f 55f
5:00 14 16 mph 1019.6mb 49f 55f
4:54 11 16 mph 1019.6mb 49f 55f
4:48 8 13 mph 1019.7mb 48f 55f
4:36 10 13 mph 1019.7mb 48f 55f
4:30 9 13 mph 1019.7mb 49f 55f
4:24 9 11 mph 1019.8mb 49f 55f
4:18 9 11 mph 1019.8mb 49f 55f
4:12 8 11 mph 1019.8mb 49f 55f
4:06 8 10 mph 1019.9mb 49f 55f
4:00 8 11 mph 1019.9mb 49f 55f
3:54 8 9 mph 1019.9mb 49f 55f
3:48 6 8 mph 1020mb 49f 55f
3:36 6 8 mph 1020.1mb 49f 55f
3:30 8 9 mph 1020.2mb 49f 55f
3:24 8 9 mph 1020.3mb 49f 55f
3:18 7 10 mph 1020.3mb 50f 55f
3:12 7 9 mph 1020.4mb 50f 55f
3:06 8 10 mph 1020.5mb 50f 55f
3:00 8 10 mph 1020.5mb 50f 55f
2:54 7 8 mph 1020.3mb 49f 55f
2:48 6 7 mph 1020.1mb 49f 56f
2:36 5 6 mph 1020.1mb 49f 55f
2:30 5 6 mph 1020.2mb 49f 55f
2:24 5 6 mph 1020.2mb 49f 55f
2:18 5 6 mph 1020.3mb 49f 55f
2:12 5 7 mph 1020.4mb 49f 56f
2:06 5 7 mph 1020.5mb 49f 56f
2:00 6 9 mph 1020.5mb 49f 56f
1:54 6 9 mph 1020.6mb 49f 56f
1:48 8 10 mph 1020.5mb 49f 56f
1:36 8 10 mph 1020.4mb 49f 56f
1:30 8 9 mph 1020.4mb 49f 56f
1:24 8 9 mph 1020.4mb 49f 56f
1:18 7 9 mph 1020.5mb 49f 56f
1:12 7 8 mph 1020.5mb 49f 55f
1:06 7 9 mph 1020.5mb 48f 55f
1:00 7 9 mph 1020.6mb 48f 56f
12:54 8 10 mph 1020.5mb 48f 56f
12:48 8 10 mph 1020.6mb 48f 56f
12:36 9 10 mph 1020.6mb 48f 56f
12:30 8 10 mph 1020.7mb 48f 56f
12:24 8 9 mph 1020.7mb 48f 56f
12:18 7 9 mph 1020.7mb 48f 56f
12:12 8 9 mph 1020.7mb 48f 56f
12:06 9 10 mph 1020.8mb 48f 56f
12:00 8 10 mph 1020.7mb 48f 56f
11:54 7 9 mph 1020.7mb 48f 56f
11:48 7 10 mph 1020.7mb 48f 57f
11:36 8 10 mph 1020.7mb 48f 56f
11:30 7 9 mph 1020.8mb 48f 56f
11:24 7 8 mph 1020.9mb 47f 56f
11:18 7 9 mph 1021mb 47f 56f
11:12 7 8 mph 1021mb 47f 56f
11:06 6 9 mph 1021mb 47f 56f
11:00 7 8 mph 1021.1mb 47f 56f
10:54 7 9 mph 1021.1mb 47f 56f
10:48 6 7 mph 1021mb 47f 56f
10:36 7 9 mph 1020.9mb 47f 56f
10:30 7 9 mph 1020.9mb 47f 56f
10:24 7 9 mph 1020.9mb 47f 56f
10:18 7 9 mph 1021mb 47f 56f
10:12 9 10 mph 1020.9mb 47f 56f
10:06 8 9 mph 1020.9mb 47f 56f
10:00 8 9 mph 1020.9mb 47f 55f
9:54 8 10 mph 1021mb 47f 55f
9:48 9 10 mph 1021mb 47f 55f
9:36 8 9 mph 1020.9mb 47f 55f
9:30 8 9 mph 1020.9mb 47f 55f
9:24 9 10 mph 1020.9mb 47f 55f
9:18 8 9 mph 1020.9mb 47f 55f
9:12 7 8 mph 1020.9mb 47f 55f
9:06 8 9 mph 1020.9mb 47f 55f
9:00 6 7 mph 1020.8mb 48f 56f
8:36 5 6 mph 1020.8mb 47f 55f
8:30 5 6 mph 1020.9mb 48f 55f
8:24 5 6 mph 1020.9mb 48f 55f
8:18 1 3 mph 1020.9mb 48f 54f
8:12 2 3 mph 1020.9mb 48f 54f
8:06 3 6 mph 1021mb 48f 54f
8:00 5 6 mph 1021mb 48f 54f
7:54 5 6 mph 1021mb 49f 55f
7:48 3 5 mph 1021mb 49f 54f
7:36 5
mph
1020.9mb 48f 55f
7:30 3
mph
1020.8mb 48f 55f
7:24 3
mph
1020.8mb 48f 55f
7:18 1 3 mph 1020.7mb 48f 55f
7:12 2 3 mph 1020.7mb 48f 54f
7:06 1 2 mph 1020.6mb 48f 54f
7:00 2 3 mph 1020.6mb 48f 54f
6:54 2
mph
1020.7mb 48f 54f
6:48 2 3 mph 1020.8mb 48f 54f
6:36 3 5 mph 1020.7mb 49f 55f
6:30 2
mph
1020.7mb 49f 55f
6:24 1
mph
1020.7mb 49f 55f
6:18 2 3 mph 1020.7mb 49f 55f
6:12 2 3 mph 1020.7mb 49f 54f
6:06 2 3 mph 1020.7mb 49f 55f
6:00 3 5 mph 1020.8mb 49f 55f
5:54 5 6 mph 1020.8mb 49f 55f
5:48 5 6 mph 1020.8mb 49f 55f
5:36 5 6 mph 1020.8mb 49f 55f
5:30 6
mph
1020.7mb 49f 55f
5:24 5 6 mph 1020.7mb 50f 54f
5:18 3 5 mph 1020.7mb 50f 55f
5:12 3 5 mph 1020.7mb 50f 55f
5:06 3 5 mph 1020.6mb 50f 55f
5:00 3 5 mph 1020.7mb 50f 55f
4:54 5 6 mph 1020.8mb 50f 55f
4:48 5 6 mph 1020.8mb 50f 55f
4:36 6 7 mph 1020.8mb 51f 55f
4:30 5 6 mph 1020.7mb 51f 56f
4:24 5 7 mph 1020.6mb 51f 56f
4:18 6 8 mph 1020.6mb 51f 56f
4:12 6 8 mph 1020.6mb 51f 56f
4:06 7 9 mph 1020.8mb 51f 56f
4:00 8 9 mph 1020.8mb 52f 56f
3:54 7 9 mph 1020.9mb 52f 56f
3:48 7 9 mph 1020.9mb 52f 55f
3:36 6 8 mph 1021mb 53f 56f
3:30 6 7 mph 1021mb 53f 55f
3:24 3 6 mph 1021mb 54f 56f
3:18 2 5 mph 1021mb 54f 56f
3:12 3 5 mph 1021mb 54f 56f
3:06 3 6 mph 1020.9mb 55f 56f
3:00 5
mph
1020.9mb 55f 56f
2:54 3 5 mph 1020.9mb 56f 56f
2:48 5 6 mph 1020.8mb 57f 57f
2:36 5 7 mph 1020.8mb 57f 57f
2:30 6 7 mph 1020.8mb 57f 57f
2:24 6
mph
1020.8mb 57f 57f
2:18 6 7 mph 1020.8mb 58f 56f
2:12 5 6 mph 1020.8mb 58f 57f
2:06 5
mph
1020.8mb 58f 57f
2:00 3 6 mph 1020.9mb 59f 56f
1:54 3 6 mph 1021mb 59f 56f
1:48 3 6 mph 1021mb 59f 56f
1:36 6 8 mph 1021.1mb 59f 57f
1:30 5 6 mph 1021.2mb 59f 56f
1:24 3 5 mph 1021.2mb 59f 56f
1:18 3 5 mph 1021.1mb 59f 56f
1:12 5 7 mph 1021.1mb 59f 56f
1:06 5 6 mph 1021.1mb 59f 56f
1:00 6 7 mph 1021.1mb 59f 56f
12:54 5 7 mph 1021.1mb 58f 56f
12:48 7 8 mph 1021.1mb 58f 56f
12:36 7 9 mph 1021.2mb 57f 57f
12:30 9 10 mph 1021.2mb 56f 56f
12:24 7 9 mph 1021.2mb 54f 56f
12:18 6 7 mph 1021.2mb 53f 57f
12:12 6 7 mph 1021.2mb 52f 56f
12:06 5 6 mph 1021.2mb 52f 57f
12:00 5 6 mph 1021.3mb 51f 57f
mer. 07/27 11:54 6 8 mph 1021.2mb 51f 57f
11:48 6 9 mph 1021.3mb 51f 58f
11:36 7 9 mph 1021.2mb 51f 58f
11:30 6 8 mph 1021.2mb 50f 58f
11:24 8 10 mph 1021.3mb 50f 58f
11:18 7 9 mph 1021.4mb 50f 58f
11:12 7 8 mph 1021.4mb 50f 58f
11:06 7 10 mph 1021.5mb 50f 58f
11:00 9 11 mph 1021.5mb 50f 58f
10:54 6 8 mph 1021.6mb 50f 57f
10:48 7 10 mph 1021.6mb 49f 58f
10:36 7 9 mph 1021.6mb 49f 57f
10:30 7 14 mph 1021.5mb 49f 58f
10:24 10 14 mph 1021.5mb 49f 58f
10:18 10 14 mph 1021.5mb 49f 58f
10:12 10 11 mph 1021.4mb 49f 58f
10:06 10 13 mph 1021.4mb 49f 58f
10:00 11 13 mph 1021.3mb 49f 58f
9:54 9 14 mph 1021.3mb 49f 58f
9:48 11 15 mph 1021.3mb 49f 58f
9:36 11 14 mph 1021.2mb 49f 58f
9:30 9 13 mph 1021.2mb 49f 58f
9:24 10 11 mph 1021mb 49f 58f
9:18 10 13 mph 1021mb 49f 58f
9:12 11 14 mph 1021mb 49f 58f
9:06 11 14 mph 1021mb 49f 58f
9:00 10 13 mph 1021mb 49f 58f
8:54 11 14 mph 1021mb 49f 58f
8:48 10 15 mph 1020.9mb 49f 58f
8:36 11 15 mph 1021mb 49f 58f
8:30 11 14 mph 1020.9mb 49f 58f
8:24 10 13 mph 1020.8mb 48f 58f
8:18 11 14 mph 1020.7mb 49f 58f
8:12 11 14 mph 1020.7mb 49f 58f
8:06 11 15 mph 1020.7mb 49f 58f
8:00 13 15 mph 1020.7mb 48f 58f
7:54 13 14 mph 1020.7mb 48f 58f
7:48 11 14 mph 1020.7mb 48f 57f
7:36 11 14 mph 1020.7mb 48f 57f
7:30 10 13 mph 1020.7mb 48f 56f
7:24 10 14 mph 1020.8mb 48f 56f
7:18 10 14 mph 1020.7mb 48f 56f
7:12 10 13 mph 1020.8mb 48f 56f
7:06 10 13 mph 1020.8mb 48f 56f
7:00 10 13 mph 1020.9mb 48f 56f
6:54 10 13 mph 1020.9mb 48f 55f
6:48 10 13 mph 1020.9mb 48f 55f
6:36 9 13 mph 1020.9mb 49f 55f
6:30 11 14 mph 1021.1mb 49f 55f
6:24 11 15 mph 1021.1mb 49f 55f
6:18 13 16 mph 1021.1mb 49f 55f
6:12 14 16 mph 1021.1mb 49f 55f
6:06 10 14 mph 1021.1mb 49f 55f
6:00 11 16 mph 1021.1mb 49f 54f
5:54 14 17 mph 1021.2mb 49f 54f
5:48 14 17 mph 1021.2mb 49f 54f
5:36 13 16 mph 1021.1mb 49f 54f
5:30 13 16 mph 1021.1mb 49f 54f
5:24 11 15 mph 1021.2mb 49f 54f
5:18 11 14 mph 1021.3mb 49f 55f
5:12 9 13 mph 1021.3mb 50f 55f
5:06 9 11 mph 1021.2mb 50f 55f
5:00 10 13 mph 1021.2mb 50f 55f
4:54 10 13 mph 1021.3mb 49f 55f
4:48 8 10 mph 1021.4mb 49f 55f
4:36 9 13 mph 1021.5mb 49f 55f
4:30 10 14 mph 1021.5mb 50f 55f
4:24 11 14 mph 1021.7mb 50f 55f
4:18 11 14 mph 1021.7mb 50f 55f
4:12 11 14 mph 1021.7mb 49f 55f
4:06 11 15 mph 1021.8mb 49f 55f
4:00 11 14 mph 1021.8mb 50f 55f
3:54 11 13 mph 1021.7mb 50f 55f
3:48 11 14 mph 1021.8mb 49f 55f
3:36 8 11 mph 1021.7mb 49f 56f
3:30 8 9 mph 1021.7mb 49f 56f
3:24 7 9 mph 1021.8mb 49f 56f
3:18 8 10 mph 1021.8mb 49f 55f
3:12 8 9 mph 1021.9mb 49f 55f
3:06 7 9 mph 1021.9mb 49f 55f
3:00 7 8 mph 1021.9mb 49f 56f
2:54 7 9 mph 1021.8mb 49f 56f
2:48 7 8 mph 1021.7mb 49f 56f
2:36 5 6 mph 1021.6mb 49f 56f
2:30 6 7 mph 1021.6mb 50f 56f
2:24 3 5 mph 1021.5mb 50f 56f
2:18 3 6 mph 1021.5mb 49f 56f
2:12 6 7 mph 1021.6mb 50f 56f
2:06 5
mph
1021.7mb 50f 56f
2:00 3 5 mph 1021.7mb 50f 56f
1:54 3 5 mph 1021.8mb 50f 56f
1:48 3 5 mph 1021.9mb 50f 56f
1:36 5 6 mph 1021.9mb 50f 56f
1:30 3 6 mph 1021.9mb 51f 56f
1:24 3 6 mph 1022mb 51f 56f
1:18 3 6 mph 1022.1mb 50f 56f
1:12 3 6 mph 1022.1mb 50f 56f
1:06 5 6 mph 1022.1mb 50f 56f
1:00 3 6 mph 1022.1mb 50f 56f
12:36 5 6 mph 1022.1mb 51f 56f
12:30 6 7 mph 1022.1mb 51f 56f
12:24 6
mph
1022.1mb 50f 56f
12:18 5 7 mph 1022.2mb 50f 56f
12:12 5 6 mph 1022.2mb 50f 56f
12:06 5 7 mph 1022.2mb 50f 56f
12:00 5 7 mph 1022.1mb 50f 56f
11:54 5 6 mph 1022mb 50f 56f
11:48 5 6 mph 1022mb 49f 56f
11:36 6 7 mph 1021.9mb 49f 56f
11:30 3 5 mph 1021.8mb 49f 56f
11:24 3 5 mph 1021.7mb 49f 56f
11:18 5 6 mph 1021.7mb 49f 56f
11:12 5 6 mph 1021.8mb 49f 56f
11:06 5 6 mph 1021.7mb 48f 56f
11:00 3 6 mph 1021.6mb 48f 56f
10:54 3 5 mph 1021.7mb 48f 56f
10:48 3 6 mph 1021.6mb 48f 56f
10:36 6 7 mph 1021.5mb 48f 56f
10:30 5 7 mph 1021.5mb 48f 56f
10:24 6 8 mph 1021.5mb 48f 56f
10:18 6 7 mph 1021.5mb 48f 56f
10:12 6 7 mph 1021.5mb 48f 56f
10:06 6 7 mph 1021.5mb 48f 56f
10:00 6 7 mph 1021.6mb 48f 56f
9:54 6
mph
1021.6mb 48f 56f
9:48 6 7 mph 1021.5mb 48f 56f
9:36 6 7 mph 1021.5mb 48f 56f
9:30 6 7 mph 1021.5mb 48f 56f
9:24 5 6 mph 1021.4mb 48f 56f
9:18 3 6 mph 1021.4mb 48f 56f
9:12 5 6 mph 1021.4mb 48f 56f
9:06 5 6 mph 1021.4mb 48f 56f
9:00 5 6 mph 1021.5mb 48f 56f
8:54 3 6 mph 1021.4mb 48f 56f
8:48 3 5 mph 1021.4mb 48f 56f
8:36 1 3 mph 1021.4mb 48f 55f
8:30 3 5 mph 1021.2mb 48f 55f
8:24 2 5 mph 1021.2mb 48f 55f
8:18 3 5 mph 1021.1mb 48f 55f
8:12 2 5 mph 1021mb 48f 55f
8:06 3 6 mph 1021mb 48f 54f
8:00 3 6 mph 1021mb 48f 54f
7:54 5 6 mph 1020.9mb 48f 54f
7:48 6
mph
1021mb 48f 54f
7:36 6
mph
1021mb 49f 54f
7:30 3 6 mph 1020.9mb 49f 55f
7:24 5 7 mph 1020.8mb 49f 55f
7:18 5 7 mph 1020.7mb 49f 55f
7:12 3 6 mph 1020.7mb 48f 55f
7:06 3 5 mph 1020.7mb 49f 55f
7:00 5 6 mph 1020.8mb 49f 55f
6:54 5 7 mph 1020.7mb 49f 55f
6:48 3 7 mph 1020.7mb 49f 55f
6:36 5 6 mph 1020.7mb 49f 55f
6:30 3 6 mph 1020.7mb 49f 55f
6:24 3 7 mph 1020.7mb 48f 55f
6:18 6 8 mph 1020.6mb 48f 55f
6:12 6 7 mph 1020.5mb 48f 55f
6:06 5 6 mph 1020.5mb 49f 56f
6:00 5 6 mph 1020.5mb 49f 56f
5:54 3 6 mph 1020.5mb 49f 56f
5:48 5 6 mph 1020.5mb 49f 56f
5:36 5 6 mph 1020.5mb 49f 56f
5:30 3 5 mph 1020.6mb 49f 56f
5:24 3 6 mph 1020.6mb 49f 56f
5:18 3 5 mph 1020.6mb 49f 56f
5:12 5 6 mph 1020.6mb 49f 56f
5:06 5 6 mph 1020.7mb 49f 56f
5:00 2 6 mph 1020.7mb 49f 56f
4:54 3 6 mph 1020.6mb 49f 56f
4:48 3 6 mph 1020.6mb 49f 57f
4:36 3 5 mph 1020.6mb 49f 57f
4:30 3 6 mph 1020.6mb 49f 57f
4:24 3 5 mph 1020.6mb 49f 57f
4:18 5
mph
1020.6mb 49f 57f
4:12 3 5 mph 1020.6mb 49f 57f
4:06 2 5 mph 1020.6mb 50f 57f
4:00 3 5 mph 1020.5mb 50f 57f
3:54 3 5 mph 1020.5mb 50f 57f
3:48 3 5 mph 1020.5mb 50f 57f
3:36 3
mph
1020.5mb 50f 57f
3:30 3
mph
1020.5mb 50f 57f
3:24 2 3 mph 1020.5mb 50f 57f
3:18 3
mph
1020.4mb 50f 57f
3:12 2
mph
1020.5mb 50f 57f
3:06 1 2 mph 1020.4mb 50f 57f
3:00  -  2 mph 1020.4mb 51f 57f
2:54 2 3 mph 1020.4mb 51f 57f
2:48  -  2 mph 1020.4mb 51f 57f
2:36 2 3 mph 1020.4mb 52f 57f
2:30  -  2 mph 1020.4mb 52f 57f
2:24 1 2 mph 1020.4mb 52f 57f
2:18 2 5 mph 1020.4mb 52f 57f
2:12 2 3 mph 1020.5mb 52f 57f
2:06 2 3 mph 1020.5mb 52f 57f
2:00 3
mph
1020.5mb 53f 57f
1:54  -  2 mph 1020.6mb 53f 57f
1:48  -  1 mph 1020.6mb 54f 56f
1:36  -  mph 1020.6mb 55f 56f
1:30  -  1 mph 1020.7mb 55f 56f
1:24 1 2 mph 1020.7mb 55f 56f
1:18 1 2 mph 1020.7mb 56f 56f
1:12 2 3 mph 1020.7mb 56f 56f
1:06 3
mph
1020.7mb 56f 56f
1:00 2 5 mph 1020.9mb 56f 56f
12:54 5 6 mph 1021mb 56f 57f
12:48  -  2 mph 1021mb 56f 57f
12:36  -  1 mph 1021mb 56f 57f
12:30  -  1 mph 1020.9mb 56f 57f
12:24  -  1 mph 1021mb 56f 57f
12:18  -  2 mph 1021mb 56f 57f
12:12 2
mph
1021mb 56f 57f
12:06 2 5 mph 1021mb 56f 57f
12:00 3 5 mph 1021.1mb 56f 57f
mar. 07/26 11:54 3 6 mph 1021.1mb 56f 57f
11:48 3 6 mph 1021.2mb 55f 57f
11:36 5 6 mph 1021.2mb 55f 57f
11:30 3 5 mph 1021.3mb 53f 57f
11:24 3 6 mph 1021.4mb 53f 57f
11:18 3 6 mph 1021.4mb 52f 57f
11:12 2 7 mph 1021.4mb 52f 57f
11:06 5 6 mph 1021.4mb 51f 57f
11:00 3 5 mph 1021.5mb 51f 57f
10:54 3 6 mph 1021.4mb 51f 57f
10:48 5 7 mph 1021.5mb 51f 57f
10:36 5 6 mph 1021.6mb 50f 57f
10:30 3 7 mph 1021.6mb 50f 57f
10:24 3 6 mph 1021.7mb 50f 57f
10:18 3 6 mph 1021.7mb 50f 57f
10:12 6 7 mph 1021.9mb 50f 57f
10:06 3 6 mph 1021.9mb 50f 57f
10:00 2 3 mph 1021.8mb 50f 57f
9:54 2 3 mph 1021.9mb 50f 57f
9:48 2 6 mph 1021.9mb 50f 57f
9:36 5 7 mph 1021.9mb 50f 56f
9:30 6 7 mph 1021.9mb 50f 56f
9:24 6 8 mph 1021.9mb 49f 56f
9:18 7
mph
1021.9mb 50f 56f
9:12 6 9 mph 1021.8mb 50f 57f
9:06 7 8 mph 1021.9mb 49f 57f
9:00 8 10 mph 1021.8mb 49f 57f
8:54 8 10 mph 1021.7mb 49f 56f
8:48 8 9 mph 1021.7mb 49f 56f
8:36 8 9 mph 1021.7mb 49f 56f
8:30 9 10 mph 1021.7mb 49f 56f
8:24 7 10 mph 1021.7mb 49f 56f
8:18 7 9 mph 1021.7mb 49f 56f
8:12 7 9 mph 1021.8mb 49f 56f
8:06 8 9 mph 1021.8mb 49f 56f
8:00 7 8 mph 1021.8mb 49f 56f
7:54 6 8 mph 1021.8mb 49f 56f
7:48 7 10 mph 1021.8mb 49f 56f
7:36 7 9 mph 1021.8mb 49f 56f
7:30 7 9 mph 1021.8mb 49f 56f
7:24 7 9 mph 1021.8mb 49f 56f
7:18 8 10 mph 1021.8mb 49f 56f
7:12 8 10 mph 1021.7mb 49f 56f
7:06 8 10 mph 1021.8mb 49f 56f
7:00 8 10 mph 1021.7mb 49f 56f
6:54 8 9 mph 1021.8mb 49f 56f
6:48 8 9 mph 1021.8mb 49f 56f
6:36 7 11 mph 1021.9mb 49f 56f
6:30 8 9 mph 1022mb 49f 56f
6:24 8 9 mph 1022mb 49f 57f
6:18 8 13 mph 1022mb 49f 56f
6:12 8 9 mph 1022.1mb 49f 56f
6:06 7 9 mph 1022.1mb 49f 56f
6:00 8 9 mph 1022.1mb 49f 56f
5:54 6 9 mph 1022.2mb 49f 56f
5:48 7 8 mph 1022.2mb 49f 56f
5:36 8 10 mph 1022.2mb 49f 56f
5:30 7 9 mph 1022.2mb 49f 56f
5:24 7 9 mph 1022.2mb 49f 57f
5:18 8 10 mph 1022.2mb 49f 57f
5:12 7 9 mph 1022.3mb 49f 57f
5:06 7 9 mph 1022.2mb 49f 57f
5:00 7 8 mph 1022.3mb 49f 57f
4:36 8 10 mph 1022.4mb 49f 57f
4:30 9 10 mph 1022.5mb 48f 57f
4:24 8 10 mph 1022.5mb 48f 57f
4:18 7 10 mph 1022.6mb 48f 57f
4:12 8 9 mph 1022.6mb 48f 57f
4:06 8 10 mph 1022.8mb 48f 57f
4:00 8 10 mph 1022.8mb 48f 57f
3:54 8 10 mph 1022.8mb 48f 57f
3:48 9 10 mph 1022.9mb 48f 57f
3:36 7 9 mph 1022.9mb 48f 57f
3:30 7 10 mph 1023mb 48f 57f
3:24 8 10 mph 1022.9mb 48f 57f
3:18 7 8 mph 1022.9mb 48f 57f
3:12 6 10 mph 1022.9mb 48f 57f
3:06 8 9 mph 1022.9mb 49f 57f
3:00 7 9 mph 1022.9mb 49f 57f
2:54 6 7 mph 1023mb 49f 57f
2:48 6 7 mph 1023mb 49f 57f
2:36 5 7 mph 1023mb 49f 57f
2:30 3 6 mph 1023mb 49f 57f
2:24 3 5 mph 1022.9mb 49f 57f
2:18 2 3 mph 1022.9mb 49f 58f
2:12 2 3 mph 1022.9mb 49f 58f
2:06 2
mph
1022.9mb 49f 58f
2:00 1 2 mph 1023mb 49f 58f
1:54 2 3 mph 1023mb 49f 57f
1:48 2 3 mph 1023mb 50f 58f
1:36 2 3 mph 1023.1mb 50f 57f
1:30 2 3 mph 1023.1mb 50f 57f
1:24 2 5 mph 1023mb 50f 57f
1:18 3 5 mph 1023.1mb 50f 57f
1:12 2 3 mph 1023.1mb 50f 57f
1:06 3 5 mph 1023.1mb 51f 57f
1:00 2 5 mph 1023.1mb 51f 57f
12:54 3 5 mph 1023.1mb 51f 57f
12:48 3 5 mph 1023.1mb 51f 57f
12:36 3 5 mph 1023.2mb 52f 57f
12:30 3
mph
1023.2mb 52f 57f
12:24 1 3 mph 1023.1mb 53f 57f
12:18 2 3 mph 1023.1mb 53f 57f
12:12 2 3 mph 1023.1mb 53f 57f
12:06 2 3 mph 1023mb 54f 57f
12:00 2 3 mph 1023mb 54f 57f
11:54 2 3 mph 1023.1mb 54f 57f
11:48 1 3 mph 1023.1mb 54f 57f
11:36 2 3 mph 1023.2mb 55f 57f
11:30 2 5 mph 1023.1mb 56f 56f
11:24 2 3 mph 1023.1mb 55f 56f
11:18 2 3 mph 1023.1mb 55f 57f
11:12 2 3 mph 1023.1mb 55f 56f
11:06 2 3 mph 1023.1mb 55f 56f
11:00 2 5 mph 1023.1mb 55f 56f
10:54 2 3 mph 1023mb 55f 56f
10:48 1 2 mph 1023mb 55f 56f
10:36 2 3 mph 1022.9mb 54f 56f
10:30 2
mph
1023mb 53f 56f
10:24 2 3 mph 1022.9mb 52f 56f
10:18 2 3 mph 1022.9mb 52f 57f
10:12 2
mph
1022.9mb 51f 57f
10:06 2
mph
1022.8mb 51f 57f
10:00  -  2 mph 1022.8mb 50f 57f
9:54  -  1 mph 1022.9mb 50f 57f
9:48  -  1 mph 1022.8mb 50f 56f
9:36 2 3 mph 1022.9mb 50f 56f
9:30 2 3 mph 1022.9mb 50f 57f
9:24 3 5 mph 1022.9mb 50f 57f